sensor_id;sensor_type;location;lat;lon;timestamp;temperature;humidity
63966;DHT22;50151;52.030;5.350;2023-06-04T00:02:23;15.20;99.90
63966;DHT22;50151;52.030;5.350;2023-06-04T00:04:50;15.00;99.90
63966;DHT22;50151;52.030;5.350;2023-06-04T00:07:17;15.10;99.90
63966;DHT22;50151;52.030;5.350;2023-06-04T00:09:44;15.00;99.90
63966;DHT22;50151;52.030;5.350;2023-06-04T00:12:13;14.90;99.90
63966;DHT22;50151;52.030;5.350;2023-06-04T00:14:40;14.90;99.90
63966;DHT22;50151;52.030;5.350;2023-06-04T00:17:08;14.80;99.90
63966;DHT22;50151;52.030;5.350;2023-06-04T00:19:37;14.80;99.90
63966;DHT22;50151;52.030;5.350;2023-06-04T00:22:04;14.80;99.90
63966;DHT22;50151;52.030;5.350;2023-06-04T00:24:32;14.70;99.90
63966;DHT22;50151;52.030;5.350;2023-06-04T00:26:59;14.80;99.90
63966;DHT22;50151;52.030;5.350;2023-06-04T00:29:26;14.70;99.90
63966;DHT22;50151;52.030;5.350;2023-06-04T00:31:53;14.60;99.90
63966;DHT22;50151;52.030;5.350;2023-06-04T00:34:19;14.60;99.90
63966;DHT22;50151;52.030;5.350;2023-06-04T00:36:47;14.50;99.90
63966;DHT22;50151;52.030;5.350;2023-06-04T00:39:13;14.40;99.90
63966;DHT22;50151;52.030;5.350;2023-06-04T00:41:40;14.30;99.90
63966;DHT22;50151;52.030;5.350;2023-06-04T00:44:07;14.30;99.90
63966;DHT22;50151;52.030;5.350;2023-06-04T00:46:35;14.30;99.90
63966;DHT22;50151;52.030;5.350;2023-06-04T00:49:04;14.30;99.90
63966;DHT22;50151;52.030;5.350;2023-06-04T00:51:32;14.20;99.90
63966;DHT22;50151;52.030;5.350;2023-06-04T00:53:59;14.20;99.90
63966;DHT22;50151;52.030;5.350;2023-06-04T00:56:28;14.20;99.90
63966;DHT22;50151;52.030;5.350;2023-06-04T00:58:55;14.30;99.90
63966;DHT22;50151;52.030;5.350;2023-06-04T01:01:56;14.10;99.90
63966;DHT22;50151;52.030;5.350;2023-06-04T01:04:30;14.10;99.90
63966;DHT22;50151;52.030;5.350;2023-06-04T01:07:00;14.00;99.90
63966;DHT22;50151;52.030;5.350;2023-06-04T01:09:30;14.10;99.90
63966;DHT22;50151;52.030;5.350;2023-06-04T01:11:57;14.00;99.90
63966;DHT22;50151;52.030;5.350;2023-06-04T01:14:28;13.90;99.90
63966;DHT22;50151;52.030;5.350;2023-06-04T01:16:58;13.90;99.90
63966;DHT22;50151;52.030;5.350;2023-06-04T01:25:03;13.90;99.90
63966;DHT22;50151;52.030;5.350;2023-06-04T01:27:31;13.80;99.90
63966;DHT22;50151;52.030;5.350;2023-06-04T01:30:00;13.60;99.90
63966;DHT22;50151;52.030;5.350;2023-06-04T01:32:27;13.60;99.90
63966;DHT22;50151;52.030;5.350;2023-06-04T01:34:54;13.70;99.90
63966;DHT22;50151;52.030;5.350;2023-06-04T01:37:21;13.70;99.90
63966;DHT22;50151;52.030;5.350;2023-06-04T01:39:48;13.70;99.90
63966;DHT22;50151;52.030;5.350;2023-06-04T01:42:15;13.60;99.90
63966;DHT22;50151;52.030;5.350;2023-06-04T01:44:41;13.50;99.90
63966;DHT22;50151;52.030;5.350;2023-06-04T01:47:08;13.50;99.90
63966;DHT22;50151;52.030;5.350;2023-06-04T01:49:35;13.40;99.90
63966;DHT22;50151;52.030;5.350;2023-06-04T01:52:04;13.40;99.90
63966;DHT22;50151;52.030;5.350;2023-06-04T01:54:32;13.30;99.90
63966;DHT22;50151;52.030;5.350;2023-06-04T01:57:00;13.30;99.90
63966;DHT22;50151;52.030;5.350;2023-06-04T01:59:27;13.20;99.90
63966;DHT22;50151;52.030;5.350;2023-06-04T02:01:54;13.20;99.90
63966;DHT22;50151;52.030;5.350;2023-06-04T02:04:21;13.10;99.90
63966;DHT22;50151;52.030;5.350;2023-06-04T02:06:47;13.10;99.90
63966;DHT22;50151;52.030;5.350;2023-06-04T02:09:15;13.10;99.90
63966;DHT22;50151;52.030;5.350;2023-06-04T02:11:42;13.20;99.90
63966;DHT22;50151;52.030;5.350;2023-06-04T02:14:08;13.10;99.90
63966;DHT22;50151;52.030;5.350;2023-06-04T02:16:35;12.90;99.90
63966;DHT22;50151;52.030;5.350;2023-06-04T02:19:02;12.90;99.90
63966;DHT22;50151;52.030;5.350;2023-06-04T02:21:29;13.00;99.90
63966;DHT22;50151;52.030;5.350;2023-06-04T02:23:56;13.00;99.90
63966;DHT22;50151;52.030;5.350;2023-06-04T02:26:23;12.80;99.90
63966;DHT22;50151;52.030;5.350;2023-06-04T02:28:51;12.90;99.90
63966;DHT22;50151;52.030;5.350;2023-06-04T02:31:18;12.90;99.90
63966;DHT22;50151;52.030;5.350;2023-06-04T02:33:45;12.80;99.90
63966;DHT22;50151;52.030;5.350;2023-06-04T02:36:11;12.70;99.90
63966;DHT22;50151;52.030;5.350;2023-06-04T02:38:38;12.70;99.90
63966;DHT22;50151;52.030;5.350;2023-06-04T02:41:05;12.80;99.90
63966;DHT22;50151;52.030;5.350;2023-06-04T02:43:32;12.60;99.90
63966;DHT22;50151;52.030;5.350;2023-06-04T02:45:59;12.60;99.90
63966;DHT22;50151;52.030;5.350;2023-06-04T02:48:26;12.60;99.90
63966;DHT22;50151;52.030;5.350;2023-06-04T02:50:53;12.50;99.90
63966;DHT22;50151;52.030;5.350;2023-06-04T02:53:19;12.50;99.90
63966;DHT22;50151;52.030;5.350;2023-06-04T02:55:47;12.40;99.90
63966;DHT22;50151;52.030;5.350;2023-06-04T02:58:14;12.50;99.90
63966;DHT22;50151;52.030;5.350;2023-06-04T03:00:41;12.50;99.90
63966;DHT22;50151;52.030;5.350;2023-06-04T03:03:08;12.40;99.90
63966;DHT22;50151;52.030;5.350;2023-06-04T03:05:35;12.40;99.90
63966;DHT22;50151;52.030;5.350;2023-06-04T03:08:03;12.40;99.90
63966;DHT22;50151;52.030;5.350;2023-06-04T03:10:30;12.30;99.90
63966;DHT22;50151;52.030;5.350;2023-06-04T03:12:57;12.30;99.90
63966;DHT22;50151;52.030;5.350;2023-06-04T03:15:24;12.30;99.90
63966;DHT22;50151;52.030;5.350;2023-06-04T03:17:51;12.20;99.90
63966;DHT22;50151;52.030;5.350;2023-06-04T03:20:18;12.20;99.90
63966;DHT22;50151;52.030;5.350;2023-06-04T03:22:44;12.20;99.90
63966;DHT22;50151;52.030;5.350;2023-06-04T03:25:11;12.20;99.90
63966;DHT22;50151;52.030;5.350;2023-06-04T03:27:38;12.20;99.90
63966;DHT22;50151;52.030;5.350;2023-06-04T03:30:05;12.20;99.90
63966;DHT22;50151;52.030;5.350;2023-06-04T03:32:32;12.10;99.90
63966;DHT22;50151;52.030;5.350;2023-06-04T03:35:00;12.00;99.90
63966;DHT22;50151;52.030;5.350;2023-06-04T03:37:27;12.00;99.90
63966;DHT22;50151;52.030;5.350;2023-06-04T03:39:54;12.00;99.90
63966;DHT22;50151;52.030;5.350;2023-06-04T03:42:21;11.90;99.90
63966;DHT22;50151;52.030;5.350;2023-06-04T03:44:47;11.90;99.90
63966;DHT22;50151;52.030;5.350;2023-06-04T03:47:14;11.90;99.90
63966;DHT22;50151;52.030;5.350;2023-06-04T03:49:41;11.90;99.90
63966;DHT22;50151;52.030;5.350;2023-06-04T03:52:08;11.80;99.90
63966;DHT22;50151;52.030;5.350;2023-06-04T03:54:34;11.90;99.90
63966;DHT22;50151;52.030;5.350;2023-06-04T03:57:01;11.80;99.90
63966;DHT22;50151;52.030;5.350;2023-06-04T03:59:28;11.80;99.90
63966;DHT22;50151;52.030;5.350;2023-06-04T04:01:55;11.70;99.90
63966;DHT22;50151;52.030;5.350;2023-06-04T04:04:22;11.80;99.90
63966;DHT22;50151;52.030;5.350;2023-06-04T04:06:48;11.80;99.90
63966;DHT22;50151;52.030;5.350;2023-06-04T04:09:15;11.70;99.90
63966;DHT22;50151;52.030;5.350;2023-06-04T04:11:42;11.70;99.90
63966;DHT22;50151;52.030;5.350;2023-06-04T04:14:09;11.60;99.90
63966;DHT22;50151;52.030;5.350;2023-06-04T04:16:35;11.70;99.90
63966;DHT22;50151;52.030;5.350;2023-06-04T04:19:02;11.60;99.90
63966;DHT22;50151;52.030;5.350;2023-06-04T04:21:30;11.70;99.90
63966;DHT22;50151;52.030;5.350;2023-06-04T04:23:57;11.60;99.90
63966;DHT22;50151;52.030;5.350;2023-06-04T04:26:24;11.70;99.90
63966;DHT22;50151;52.030;5.350;2023-06-04T04:28:54;11.60;99.90
63966;DHT22;50151;52.030;5.350;2023-06-04T04:31:25;11.60;99.90
63966;DHT22;50151;52.030;5.350;2023-06-04T04:33:52;11.70;99.90
63966;DHT22;50151;52.030;5.350;2023-06-04T04:36:20;11.70;99.90
63966;DHT22;50151;52.030;5.350;2023-06-04T04:38:50;11.80;99.90
63966;DHT22;50151;52.030;5.350;2023-06-04T04:41:20;11.70;99.90
63966;DHT22;50151;52.030;5.350;2023-06-04T04:43:49;11.80;99.90
63966;DHT22;50151;52.030;5.350;2023-06-04T04:46:16;11.80;99.90
63966;DHT22;50151;52.030;5.350;2023-06-04T04:48:43;11.90;99.90
63966;DHT22;50151;52.030;5.350;2023-06-04T04:51:10;11.90;99.90
63966;DHT22;50151;52.030;5.350;2023-06-04T04:53:36;12.00;99.90
63966;DHT22;50151;52.030;5.350;2023-06-04T04:56:03;11.90;99.90
63966;DHT22;50151;52.030;5.350;2023-06-04T04:58:33;12.00;99.90
63966;DHT22;50151;52.030;5.350;2023-06-04T05:01:00;12.00;99.90
63966;DHT22;50151;52.030;5.350;2023-06-04T05:03:26;12.00;99.90
63966;DHT22;50151;52.030;5.350;2023-06-04T05:05:53;12.10;99.90
63966;DHT22;50151;52.030;5.350;2023-06-04T05:08:20;12.20;99.90
63966;DHT22;50151;52.030;5.350;2023-06-04T05:10:46;12.20;99.90
63966;DHT22;50151;52.030;5.350;2023-06-04T05:13:13;12.30;99.90
63966;DHT22;50151;52.030;5.350;2023-06-04T05:15:40;12.30;99.90
63966;DHT22;50151;52.030;5.350;2023-06-04T05:18:08;12.30;99.90
63966;DHT22;50151;52.030;5.350;2023-06-04T05:20:35;12.30;99.90
63966;DHT22;50151;52.030;5.350;2023-06-04T05:23:04;12.40;99.90
63966;DHT22;50151;52.030;5.350;2023-06-04T05:25:31;12.40;99.90
63966;DHT22;50151;52.030;5.350;2023-06-04T05:27:57;12.50;99.90
63966;DHT22;50151;52.030;5.350;2023-06-04T05:30:24;12.40;99.90
63966;DHT22;50151;52.030;5.350;2023-06-04T05:32:51;12.50;99.90
63966;DHT22;50151;52.030;5.350;2023-06-04T05:35:20;12.70;99.90
63966;DHT22;50151;52.030;5.350;2023-06-04T05:37:47;12.60;99.90
63966;DHT22;50151;52.030;5.350;2023-06-04T05:40:20;12.70;99.90
63966;DHT22;50151;52.030;5.350;2023-06-04T05:42:48;12.80;99.90
63966;DHT22;50151;52.030;5.350;2023-06-04T05:45:15;12.80;99.90
63966;DHT22;50151;52.030;5.350;2023-06-04T05:47:41;12.90;99.90
63966;DHT22;50151;52.030;5.350;2023-06-04T05:50:09;12.90;99.90
63966;DHT22;50151;52.030;5.350;2023-06-04T05:52:36;13.00;99.90
63966;DHT22;50151;52.030;5.350;2023-06-04T05:55:04;13.00;99.90
63966;DHT22;50151;52.030;5.350;2023-06-04T05:57:34;13.20;99.90
63966;DHT22;50151;52.030;5.350;2023-06-04T06:00:01;13.20;99.90
63966;DHT22;50151;52.030;5.350;2023-06-04T06:02:27;13.30;99.90
63966;DHT22;50151;52.030;5.350;2023-06-04T06:04:54;13.40;99.90
63966;DHT22;50151;52.030;5.350;2023-06-04T06:07:21;13.40;99.90
63966;DHT22;50151;52.030;5.350;2023-06-04T06:09:48;13.40;99.90
63966;DHT22;50151;52.030;5.350;2023-06-04T06:12:15;13.50;99.90
63966;DHT22;50151;52.030;5.350;2023-06-04T06:14:41;13.50;99.90
63966;DHT22;50151;52.030;5.350;2023-06-04T06:17:08;13.60;99.90
63966;DHT22;50151;52.030;5.350;2023-06-04T06:19:36;13.70;99.90
63966;DHT22;50151;52.030;5.350;2023-06-04T06:22:04;13.80;99.90
63966;DHT22;50151;52.030;5.350;2023-06-04T06:24:31;13.90;99.90
63966;DHT22;50151;52.030;5.350;2023-06-04T06:26:57;13.90;99.90
63966;DHT22;50151;52.030;5.350;2023-06-04T06:29:24;14.00;99.90
63966;DHT22;50151;52.030;5.350;2023-06-04T06:31:51;14.00;99.90
63966;DHT22;50151;52.030;5.350;2023-06-04T06:34:18;14.10;99.90
63966;DHT22;50151;52.030;5.350;2023-06-04T06:36:45;14.20;99.90
63966;DHT22;50151;52.030;5.350;2023-06-04T06:39:11;14.20;99.90
63966;DHT22;50151;52.030;5.350;2023-06-04T06:41:38;14.40;99.90
63966;DHT22;50151;52.030;5.350;2023-06-04T06:44:06;14.40;99.90
63966;DHT22;50151;52.030;5.350;2023-06-04T06:46:32;14.50;99.90
63966;DHT22;50151;52.030;5.350;2023-06-04T06:49:00;14.60;99.90
63966;DHT22;50151;52.030;5.350;2023-06-04T06:51:26;14.70;99.90
63966;DHT22;50151;52.030;5.350;2023-06-04T06:53:53;14.80;99.90
63966;DHT22;50151;52.030;5.350;2023-06-04T06:56:20;14.90;99.90
63966;DHT22;50151;52.030;5.350;2023-06-04T06:58:47;15.00;99.90
63966;DHT22;50151;52.030;5.350;2023-06-04T07:01:14;15.10;99.90
63966;DHT22;50151;52.030;5.350;2023-06-04T07:03:41;15.20;99.90
63966;DHT22;50151;52.030;5.350;2023-06-04T07:06:07;15.10;99.90
63966;DHT22;50151;52.030;5.350;2023-06-04T07:08:34;15.20;99.90
63966;DHT22;50151;52.030;5.350;2023-06-04T07:11:02;15.30;99.90
63966;DHT22;50151;52.030;5.350;2023-06-04T07:13:29;15.40;99.90
63966;DHT22;50151;52.030;5.350;2023-06-04T07:15:58;15.40;99.90
63966;DHT22;50151;52.030;5.350;2023-06-04T07:18:25;15.50;99.90
63966;DHT22;50151;52.030;5.350;2023-06-04T07:20:52;15.70;99.90
63966;DHT22;50151;52.030;5.350;2023-06-04T07:23:23;15.70;99.90
63966;DHT22;50151;52.030;5.350;2023-06-04T07:25:50;15.80;99.90
63966;DHT22;50151;52.030;5.350;2023-06-04T07:28:16;15.90;99.90
63966;DHT22;50151;52.030;5.350;2023-06-04T07:30:45;16.00;99.90
63966;DHT22;50151;52.030;5.350;2023-06-04T07:33:12;16.20;99.90
63966;DHT22;50151;52.030;5.350;2023-06-04T07:35:39;16.20;99.90
63966;DHT22;50151;52.030;5.350;2023-06-04T07:38:06;16.30;99.90
63966;DHT22;50151;52.030;5.350;2023-06-04T07:40:33;16.40;99.90
63966;DHT22;50151;52.030;5.350;2023-06-04T07:43:00;16.50;99.90
63966;DHT22;50151;52.030;5.350;2023-06-04T07:45:27;16.50;99.90
63966;DHT22;50151;52.030;5.350;2023-06-04T07:47:59;16.50;99.90
63966;DHT22;50151;52.030;5.350;2023-06-04T07:50:26;16.70;99.90
63966;DHT22;50151;52.030;5.350;2023-06-04T07:52:53;16.90;99.90
63966;DHT22;50151;52.030;5.350;2023-06-04T07:55:20;16.90;99.90
63966;DHT22;50151;52.030;5.350;2023-06-04T07:57:47;17.00;99.90
63966;DHT22;50151;52.030;5.350;2023-06-04T08:00:14;17.00;99.90
63966;DHT22;50151;52.030;5.350;2023-06-04T08:02:41;17.10;99.90
63966;DHT22;50151;52.030;5.350;2023-06-04T08:05:08;17.10;99.90
63966;DHT22;50151;52.030;5.350;2023-06-04T08:07:35;17.20;99.90
63966;DHT22;50151;52.030;5.350;2023-06-04T08:10:02;17.30;99.90
63966;DHT22;50151;52.030;5.350;2023-06-04T08:12:30;17.40;99.90
63966;DHT22;50151;52.030;5.350;2023-06-04T08:14:56;17.40;99.90
63966;DHT22;50151;52.030;5.350;2023-06-04T08:17:27;17.50;99.90
63966;DHT22;50151;52.030;5.350;2023-06-04T08:19:56;17.70;99.90
63966;DHT22;50151;52.030;5.350;2023-06-04T08:22:22;17.70;99.90
63966;DHT22;50151;52.030;5.350;2023-06-04T08:24:49;17.80;99.90
63966;DHT22;50151;52.030;5.350;2023-06-04T08:27:16;18.00;99.90
63966;DHT22;50151;52.030;5.350;2023-06-04T08:29:44;18.00;99.90
63966;DHT22;50151;52.030;5.350;2023-06-04T08:32:11;18.10;99.90
63966;DHT22;50151;52.030;5.350;2023-06-04T08:34:39;18.00;99.90
63966;DHT22;50151;52.030;5.350;2023-06-04T08:37:06;18.10;99.90
63966;DHT22;50151;52.030;5.350;2023-06-04T08:39:33;18.20;99.90
63966;DHT22;50151;52.030;5.350;2023-06-04T08:42:06;18.40;99.90
63966;DHT22;50151;52.030;5.350;2023-06-04T08:44:36;18.50;99.90
63966;DHT22;50151;52.030;5.350;2023-06-04T08:47:05;18.60;99.90
63966;DHT22;50151;52.030;5.350;2023-06-04T08:49:35;18.70;99.90
63966;DHT22;50151;52.030;5.350;2023-06-04T08:52:03;18.80;99.90
63966;DHT22;50151;52.030;5.350;2023-06-04T08:54:32;18.70;99.90
63966;DHT22;50151;52.030;5.350;2023-06-04T08:57:00;18.70;99.90
63966;DHT22;50151;52.030;5.350;2023-06-04T08:59:28;18.80;99.90
63966;DHT22;50151;52.030;5.350;2023-06-04T09:01:55;19.00;99.90
63966;DHT22;50151;52.030;5.350;2023-06-04T09:04:23;19.20;99.90
63966;DHT22;50151;52.030;5.350;2023-06-04T09:06:52;19.20;99.90
63966;DHT22;50151;52.030;5.350;2023-06-04T09:09:21;19.40;99.90
63966;DHT22;50151;52.030;5.350;2023-06-04T09:11:55;19.40;99.90
63966;DHT22;50151;52.030;5.350;2023-06-04T09:14:23;19.50;99.90
63966;DHT22;50151;52.030;5.350;2023-06-04T09:16:52;19.60;99.90
63966;DHT22;50151;52.030;5.350;2023-06-04T09:19:21;19.60;99.90
63966;DHT22;50151;52.030;5.350;2023-06-04T09:24:17;19.80;99.90
63966;DHT22;50151;52.030;5.350;2023-06-04T09:26:44;20.00;99.90
63966;DHT22;50151;52.030;5.350;2023-06-04T09:29:12;20.00;99.90
63966;DHT22;50151;52.030;5.350;2023-06-04T09:31:39;20.10;99.90
63966;DHT22;50151;52.030;5.350;2023-06-04T09:34:07;20.20;99.90
63966;DHT22;50151;52.030;5.350;2023-06-04T09:36:35;20.20;99.90
63966;DHT22;50151;52.030;5.350;2023-06-04T09:39:03;20.20;99.90
63966;DHT22;50151;52.030;5.350;2023-06-04T09:41:32;20.40;99.90
63966;DHT22;50151;52.030;5.350;2023-06-04T09:44:02;20.60;99.90
63966;DHT22;50151;52.030;5.350;2023-06-04T09:46:30;20.70;99.90
63966;DHT22;50151;52.030;5.350;2023-06-04T09:49:02;20.80;99.90
63966;DHT22;50151;52.030;5.350;2023-06-04T09:51:32;21.00;99.90
63966;DHT22;50151;52.030;5.350;2023-06-04T09:54:02;20.90;99.90
63966;DHT22;50151;52.030;5.350;2023-06-04T09:56:41;21.00;99.90
63966;DHT22;50151;52.030;5.350;2023-06-04T09:59:13;21.10;99.90
63966;DHT22;50151;52.030;5.350;2023-06-04T10:01:45;21.10;99.90
63966;DHT22;50151;52.030;5.350;2023-06-04T10:04:13;21.20;99.90
63966;DHT22;50151;52.030;5.350;2023-06-04T10:06:41;21.20;99.90
63966;DHT22;50151;52.030;5.350;2023-06-04T10:09:09;21.30;99.90
63966;DHT22;50151;52.030;5.350;2023-06-04T10:11:40;21.30;99.90
63966;DHT22;50151;52.030;5.350;2023-06-04T10:14:25;21.60;99.90
63966;DHT22;50151;52.030;5.350;2023-06-04T10:16:57;21.80;99.90
63966;DHT22;50151;52.030;5.350;2023-06-04T10:19:25;21.80;99.90
63966;DHT22;50151;52.030;5.350;2023-06-04T10:21:53;21.70;99.90
63966;DHT22;50151;52.030;5.350;2023-06-04T10:24:20;21.70;99.90
63966;DHT22;50151;52.030;5.350;2023-06-04T10:26:48;21.90;99.90
63966;DHT22;50151;52.030;5.350;2023-06-04T10:29:17;22.20;99.90
63966;DHT22;50151;52.030;5.350;2023-06-04T10:31:45;22.10;99.90
63966;DHT22;50151;52.030;5.350;2023-06-04T10:34:12;22.30;99.90
63966;DHT22;50151;52.030;5.350;2023-06-04T10:36:44;22.50;99.90
63966;DHT22;50151;52.030;5.350;2023-06-04T10:39:12;22.40;99.90
63966;DHT22;50151;52.030;5.350;2023-06-04T10:41:40;22.50;99.90
63966;DHT22;50151;52.030;5.350;2023-06-04T10:44:07;22.50;99.90
63966;DHT22;50151;52.030;5.350;2023-06-04T10:46:39;22.60;99.90
63966;DHT22;50151;52.030;5.350;2023-06-04T10:49:10;22.70;99.90
63966;DHT22;50151;52.030;5.350;2023-06-04T10:51:39;22.70;99.90
63966;DHT22;50151;52.030;5.350;2023-06-04T10:54:07;23.10;99.90
63966;DHT22;50151;52.030;5.350;2023-06-04T10:56:35;23.10;99.90
63966;DHT22;50151;52.030;5.350;2023-06-04T10:59:14;23.20;99.90
63966;DHT22;50151;52.030;5.350;2023-06-04T11:01:42;23.20;99.90
63966;DHT22;50151;52.030;5.350;2023-06-04T11:04:22;23.40;99.90
63966;DHT22;50151;52.030;5.350;2023-06-04T11:07:07;23.60;99.90
63966;DHT22;50151;52.030;5.350;2023-06-04T11:09:47;23.30;99.90
63966;DHT22;50151;52.030;5.350;2023-06-04T11:12:14;23.30;99.90
63966;DHT22;50151;52.030;5.350;2023-06-04T11:14:56;23.50;99.90
63966;DHT22;50151;52.030;5.350;2023-06-04T11:17:23;23.80;99.90
63966;DHT22;50151;52.030;5.350;2023-06-04T11:19:51;23.70;99.90
63966;DHT22;50151;52.030;5.350;2023-06-04T11:22:22;23.80;99.90
63966;DHT22;50151;52.030;5.350;2023-06-04T11:24:49;23.90;99.90
63966;DHT22;50151;52.030;5.350;2023-06-04T11:27:17;24.00;99.90
63966;DHT22;50151;52.030;5.350;2023-06-04T11:30:01;24.00;99.90
63966;DHT22;50151;52.030;5.350;2023-06-04T11:32:29;24.20;99.90
63966;DHT22;50151;52.030;5.350;2023-06-04T11:35:03;24.30;99.90
63966;DHT22;50151;52.030;5.350;2023-06-04T11:37:36;24.60;99.90
63966;DHT22;50151;52.030;5.350;2023-06-04T11:40:18;24.60;99.90
63966;DHT22;50151;52.030;5.350;2023-06-04T11:42:46;24.80;99.90
63966;DHT22;50151;52.030;5.350;2023-06-04T11:45:15;24.70;99.90
63966;DHT22;50151;52.030;5.350;2023-06-04T11:48:01;24.90;99.90
63966;DHT22;50151;52.030;5.350;2023-06-04T11:50:31;25.00;99.90
63966;DHT22;50151;52.030;5.350;2023-06-04T11:52:58;25.10;99.90
63966;DHT22;50151;52.030;5.350;2023-06-04T11:55:26;24.80;99.90
63966;DHT22;50151;52.030;5.350;2023-06-04T11:57:53;25.00;99.90
63966;DHT22;50151;52.030;5.350;2023-06-04T12:00:20;25.00;99.90
63966;DHT22;50151;52.030;5.350;2023-06-04T12:02:52;25.20;99.90
63966;DHT22;50151;52.030;5.350;2023-06-04T12:05:22;25.40;99.90
63966;DHT22;50151;52.030;5.350;2023-06-04T12:07:51;25.40;99.90
63966;DHT22;50151;52.030;5.350;2023-06-04T12:10:19;25.40;99.90
63966;DHT22;50151;52.030;5.350;2023-06-04T12:12:53;25.70;99.90
63966;DHT22;50151;52.030;5.350;2023-06-04T12:15:21;25.70;99.90
63966;DHT22;50151;52.030;5.350;2023-06-04T12:17:50;25.90;99.90
63966;DHT22;50151;52.030;5.350;2023-06-04T12:20:30;26.00;99.90
63966;DHT22;50151;52.030;5.350;2023-06-04T12:23:03;25.80;99.90
63966;DHT22;50151;52.030;5.350;2023-06-04T12:25:32;25.60;99.90
63966;DHT22;50151;52.030;5.350;2023-06-04T12:27:59;25.90;99.90
63966;DHT22;50151;52.030;5.350;2023-06-04T12:30:40;25.60;99.90
63966;DHT22;50151;52.030;5.350;2023-06-04T12:33:11;26.00;99.90
63966;DHT22;50151;52.030;5.350;2023-06-04T12:35:39;26.20;99.90
63966;DHT22;50151;52.030;5.350;2023-06-04T12:38:06;25.80;99.90
63966;DHT22;50151;52.030;5.350;2023-06-04T12:40:36;26.10;99.90
63966;DHT22;50151;52.030;5.350;2023-06-04T12:43:05;26.30;99.90
63966;DHT22;50151;52.030;5.350;2023-06-04T12:45:31;26.10;99.90
63966;DHT22;50151;52.030;5.350;2023-06-04T12:47:58;26.00;99.90
63966;DHT22;50151;52.030;5.350;2023-06-04T12:50:25;26.30;99.90
63966;DHT22;50151;52.030;5.350;2023-06-04T12:52:52;26.20;99.90
63966;DHT22;50151;52.030;5.350;2023-06-04T12:55:19;26.50;99.90
63966;DHT22;50151;52.030;5.350;2023-06-04T12:57:46;26.40;99.90
63966;DHT22;50151;52.030;5.350;2023-06-04T13:00:13;26.90;99.90
63966;DHT22;50151;52.030;5.350;2023-06-04T13:02:41;26.60;99.90
63966;DHT22;50151;52.030;5.350;2023-06-04T13:05:08;26.50;99.90
63966;DHT22;50151;52.030;5.350;2023-06-04T13:07:35;26.90;99.90
63966;DHT22;50151;52.030;5.350;2023-06-04T13:10:02;26.60;99.90
63966;DHT22;50151;52.030;5.350;2023-06-04T13:12:29;27.60;99.90
63966;DHT22;50151;52.030;5.350;2023-06-04T13:14:56;27.80;99.90
63966;DHT22;50151;52.030;5.350;2023-06-04T13:17:23;28.20;99.90
63966;DHT22;50151;52.030;5.350;2023-06-04T13:19:50;28.60;99.90
63966;DHT22;50151;52.030;5.350;2023-06-04T13:22:18;28.20;99.90
63966;DHT22;50151;52.030;5.350;2023-06-04T13:24:45;28.30;99.90
63966;DHT22;50151;52.030;5.350;2023-06-04T13:27:11;28.30;99.90
63966;DHT22;50151;52.030;5.350;2023-06-04T13:29:38;28.50;99.90
63966;DHT22;50151;52.030;5.350;2023-06-04T13:32:08;28.50;99.90
63966;DHT22;50151;52.030;5.350;2023-06-04T13:34:37;28.40;99.90
63966;DHT22;50151;52.030;5.350;2023-06-04T13:37:04;28.10;99.90
63966;DHT22;50151;52.030;5.350;2023-06-04T13:39:32;28.50;99.90
63966;DHT22;50151;52.030;5.350;2023-06-04T13:41:59;28.40;99.90
63966;DHT22;50151;52.030;5.350;2023-06-04T13:44:26;28.30;99.90
63966;DHT22;50151;52.030;5.350;2023-06-04T13:46:57;28.80;99.90
63966;DHT22;50151;52.030;5.350;2023-06-04T13:49:23;28.50;99.90
63966;DHT22;50151;52.030;5.350;2023-06-04T13:51:50;28.70;99.90
63966;DHT22;50151;52.030;5.350;2023-06-04T13:54:17;28.90;99.90
63966;DHT22;50151;52.030;5.350;2023-06-04T13:56:45;28.80;99.90
63966;DHT22;50151;52.030;5.350;2023-06-04T13:59:12;29.20;99.90
63966;DHT22;50151;52.030;5.350;2023-06-04T14:01:40;29.20;99.90
63966;DHT22;50151;52.030;5.350;2023-06-04T14:04:07;29.40;99.90
63966;DHT22;50151;52.030;5.350;2023-06-04T14:06:35;29.00;99.90
63966;DHT22;50151;52.030;5.350;2023-06-04T14:09:03;28.70;99.90
63966;DHT22;50151;52.030;5.350;2023-06-04T14:11:30;28.90;99.90
63966;DHT22;50151;52.030;5.350;2023-06-04T14:13:59;28.90;99.90
63966;DHT22;50151;52.030;5.350;2023-06-04T14:16:26;29.20;99.90
63966;DHT22;50151;52.030;5.350;2023-06-04T14:18:53;29.20;99.90
63966;DHT22;50151;52.030;5.350;2023-06-04T14:21:20;28.60;99.90
63966;DHT22;50151;52.030;5.350;2023-06-04T14:23:48;28.50;99.90
63966;DHT22;50151;52.030;5.350;2023-06-04T14:26:17;28.90;99.90
63966;DHT22;50151;52.030;5.350;2023-06-04T14:28:44;28.90;99.90
63966;DHT22;50151;52.030;5.350;2023-06-04T14:31:11;29.20;99.90
63966;DHT22;50151;52.030;5.350;2023-06-04T14:33:39;28.80;99.90
63966;DHT22;50151;52.030;5.350;2023-06-04T14:36:06;28.10;99.90
63966;DHT22;50151;52.030;5.350;2023-06-04T14:38:33;28.60;99.90
63966;DHT22;50151;52.030;5.350;2023-06-04T14:41:00;29.00;99.90
63966;DHT22;50151;52.030;5.350;2023-06-04T14:43:27;28.80;99.90
63966;DHT22;50151;52.030;5.350;2023-06-04T14:45:54;28.40;99.90
63966;DHT22;50151;52.030;5.350;2023-06-04T14:48:21;28.30;99.90
63966;DHT22;50151;52.030;5.350;2023-06-04T14:50:48;28.10;99.90
63966;DHT22;50151;52.030;5.350;2023-06-04T14:53:20;27.90;99.90
63966;DHT22;50151;52.030;5.350;2023-06-04T14:55:47;27.20;99.90
63966;DHT22;50151;52.030;5.350;2023-06-04T14:58:15;27.30;99.90
63966;DHT22;50151;52.030;5.350;2023-06-04T15:00:42;27.40;99.90
63966;DHT22;50151;52.030;5.350;2023-06-04T15:03:10;27.70;99.90
63966;DHT22;50151;52.030;5.350;2023-06-04T15:05:37;27.70;99.90
63966;DHT22;50151;52.030;5.350;2023-06-04T15:08:04;27.20;99.90
63966;DHT22;50151;52.030;5.350;2023-06-04T15:10:31;27.30;99.90
63966;DHT22;50151;52.030;5.350;2023-06-04T15:13:00;27.10;99.90
63966;DHT22;50151;52.030;5.350;2023-06-04T15:15:27;26.60;99.90
63966;DHT22;50151;52.030;5.350;2023-06-04T15:17:54;26.60;99.90
63966;DHT22;50151;52.030;5.350;2023-06-04T15:20:21;26.80;99.90
63966;DHT22;50151;52.030;5.350;2023-06-04T15:22:51;26.90;99.90
63966;DHT22;50151;52.030;5.350;2023-06-04T15:25:19;26.40;99.90
63966;DHT22;50151;52.030;5.350;2023-06-04T15:27:46;26.10;99.90
63966;DHT22;50151;52.030;5.350;2023-06-04T15:30:13;26.10;99.90
63966;DHT22;50151;52.030;5.350;2023-06-04T15:32:40;26.20;99.90
63966;DHT22;50151;52.030;5.350;2023-06-04T15:35:08;26.40;99.90
63966;DHT22;50151;52.030;5.350;2023-06-04T15:37:35;26.30;99.90
63966;DHT22;50151;52.030;5.350;2023-06-04T15:40:04;26.30;99.90
63966;DHT22;50151;52.030;5.350;2023-06-04T15:42:33;26.40;99.90
63966;DHT22;50151;52.030;5.350;2023-06-04T15:44:59;26.20;99.90